createdAt,value
2023-04-11T00:01:14.674Z,3.50
2023-04-11T00:04:20.637Z,3.07
2023-04-11T00:07:23.852Z,3.10
2023-04-11T00:10:26.695Z,2.63
2023-04-11T00:13:29.510Z,2.80
2023-04-11T00:16:34.355Z,2.60
2023-04-11T00:19:37.552Z,2.97
2023-04-11T00:22:40.610Z,3.00
2023-04-11T00:25:43.610Z,3.27
2023-04-11T00:28:46.414Z,3.17
2023-04-11T00:31:52.764Z,3.00
2023-04-11T00:34:56.239Z,2.80
2023-04-11T00:38:01.264Z,1.93
2023-04-11T00:41:04.523Z,2.00
2023-04-11T00:44:07.464Z,2.60
2023-04-11T00:47:11.824Z,2.83
2023-04-11T00:50:15.888Z,2.57
2023-04-11T00:53:19.106Z,2.37
2023-04-11T00:56:23.050Z,1.90
2023-04-11T00:59:26.695Z,2.10
2023-04-11T01:02:32.078Z,2.10
2023-04-11T01:05:36.312Z,2.33
2023-04-11T01:08:41.157Z,2.13
2023-04-11T01:11:44.121Z,2.10
2023-04-11T01:14:47.786Z,1.90
2023-04-11T01:17:52.941Z,2.10
2023-04-11T01:20:55.923Z,2.13
2023-04-11T01:24:03.671Z,2.03
2023-04-11T01:27:06.472Z,3.10
2023-04-11T01:30:12.363Z,2.33
2023-04-11T01:33:17.303Z,2.27
2023-04-11T01:36:20.365Z,2.70
2023-04-11T01:39:24.764Z,2.10
2023-04-11T01:42:29.393Z,2.13
2023-04-11T01:45:33.411Z,1.97
2023-04-11T01:48:36.376Z,1.70
2023-04-11T01:51:39.274Z,2.17
2023-04-11T01:54:43.434Z,2.77
2023-04-11T01:57:46.224Z,2.20
2023-04-11T02:00:49.031Z,2.10
2023-04-11T02:03:52.860Z,1.70
2023-04-11T02:06:55.768Z,1.50
2023-04-11T02:10:01.013Z,1.50
2023-04-11T02:13:03.837Z,1.93
2023-04-11T02:16:11.562Z,1.43
2023-04-11T02:19:14.437Z,0.90
2023-04-11T02:22:17.297Z,1.70
2023-04-11T02:25:21.501Z,1.13
2023-04-11T02:28:24.297Z,1.43
2023-04-11T02:31:27.539Z,2.27
2023-04-11T02:34:30.812Z,1.13
2023-04-11T02:37:33.600Z,1.20
2023-04-11T02:40:37.732Z,1.17
2023-04-11T02:43:40.577Z,1.67
2023-04-11T02:46:43.423Z,2.60
2023-04-11T02:49:46.224Z,2.13
2023-04-11T02:52:49.836Z,2.23
2023-04-11T02:55:54.030Z,1.47
2023-04-11T02:58:57.192Z,1.80
2023-04-11T03:02:00.916Z,1.80
2023-04-11T03:05:04.587Z,5.73
2023-04-11T03:08:09.033Z,1.30
2023-04-11T03:11:13.249Z,3.37
2023-04-11T03:14:16.243Z,0.90
2023-04-11T03:17:19.223Z,1.27
2023-04-11T03:20:22.018Z,4.40
2023-04-11T03:23:24.799Z,1.60
2023-04-11T03:26:28.992Z,1.93
2023-04-11T03:29:31.903Z,0.90
2023-04-11T03:32:34.750Z,0.73
2023-04-11T03:35:37.730Z,1.80
2023-04-11T03:38:40.632Z,1.10
2023-04-11T03:41:44.903Z,0.97
2023-04-11T03:44:47.679Z,1.30
2023-04-11T03:47:50.594Z,0.90
2023-04-11T03:50:53.924Z,2.20
2023-04-11T03:53:56.697Z,1.20
2023-04-11T03:57:01.098Z,0.80
2023-04-11T04:00:05.743Z,2.10
2023-04-11T04:03:08.689Z,1.60
2023-04-11T04:06:11.636Z,1.00
2023-04-11T04:09:14.410Z,1.20
2023-04-11T04:12:18.711Z,0.87
2023-04-11T04:15:21.583Z,1.13
2023-04-11T04:18:24.424Z,4.07
2023-04-11T04:21:32.469Z,2.00
2023-04-11T04:24:38.350Z,1.20
2023-04-11T04:27:44.401Z,0.83
2023-04-11T04:30:50.011Z,0.80
2023-04-11T04:33:52.881Z,0.80
2023-04-11T04:36:59.467Z,2.07
2023-04-11T04:40:07.720Z,1.20
2023-04-11T04:43:18.406Z,0.80
2023-04-11T04:46:21.464Z,2.60
2023-04-11T04:49:24.483Z,2.30
2023-04-11T04:52:28.530Z,2.03
2023-04-11T04:55:31.288Z,3.57
2023-04-11T04:58:35.645Z,1.33
2023-04-11T05:01:39.875Z,2.10
2023-04-11T05:04:44.724Z,1.27
2023-04-11T05:07:48.296Z,3.33
2023-04-11T05:10:51.057Z,1.17
2023-04-11T05:13:55.984Z,1.00
2023-04-11T05:16:59.149Z,3.23
2023-04-11T05:20:02.035Z,1.67
2023-04-11T05:23:04.838Z,1.37
2023-04-11T05:26:08.024Z,6.27
2023-04-11T05:29:12.544Z,3.10
2023-04-11T05:32:15.356Z,1.60
2023-04-11T05:35:18.161Z,2.00
2023-04-11T05:38:21.547Z,1.10
2023-04-11T05:41:24.305Z,2.90
2023-04-11T05:44:28.931Z,1.30
2023-04-11T05:47:32.164Z,1.40
2023-04-11T05:50:35.229Z,2.50
2023-04-11T05:53:38.053Z,1.60
2023-04-11T05:56:42.351Z,8.73
2023-04-11T05:59:49.746Z,1.33
2023-04-11T06:02:53.002Z,1.57
2023-04-11T06:05:55.936Z,0.80
2023-04-11T06:08:58.750Z,2.53
2023-04-11T06:12:01.705Z,1.30
2023-04-11T06:15:07.085Z,1.27
2023-04-11T06:18:09.939Z,8.97
2023-04-11T06:21:12.714Z,1.40
2023-04-11T06:24:18.098Z,1.33
2023-04-11T06:27:20.888Z,1.33
2023-04-11T06:30:25.289Z,1.40
2023-04-11T06:33:28.135Z,1.60
2023-04-11T06:36:31.396Z,3.33
2023-04-11T06:39:34.718Z,3.77
2023-04-11T06:42:37.481Z,2.77
2023-04-11T06:45:41.657Z,2.30
2023-04-11T06:48:44.444Z,3.80
2023-04-11T06:51:49.176Z,1.50
2023-04-11T06:54:51.972Z,4.27
2023-04-11T06:57:55.035Z,6.80
2023-04-11T07:00:59.180Z,4.33
2023-04-11T07:04:02.527Z,4.73
2023-04-11T07:07:05.698Z,4.10
2023-04-11T07:10:09.886Z,3.90
2023-04-11T07:13:12.679Z,4.63
2023-04-11T07:16:16.868Z,1.57
2023-04-11T07:19:19.667Z,0.80
2023-04-11T07:22:22.540Z,0.93
2023-04-11T07:25:30.476Z,1.40
2023-04-11T07:28:33.350Z,1.10
2023-04-11T07:31:38.134Z,1.23
2023-04-11T07:34:40.965Z,2.43
2023-04-11T07:37:43.841Z,0.50
2023-04-11T07:40:46.633Z,0.73
2023-04-11T07:43:49.439Z,0.40
2023-04-11T07:46:53.551Z,0.87
2023-04-11T07:49:56.326Z,0.67
2023-04-11T07:52:59.231Z,0.80
2023-04-11T07:56:02.076Z,2.20
2023-04-11T07:59:04.943Z,2.33
2023-04-11T08:02:09.244Z,1.23
2023-04-11T08:05:12.368Z,0.87
2023-04-11T08:08:15.253Z,0.70
2023-04-11T08:11:18.060Z,1.33
2023-04-11T08:14:20.907Z,0.40
2023-04-11T08:17:29.229Z,0.20
2023-04-11T08:20:32.314Z,0.30
2023-04-11T08:23:35.248Z,0.40
2023-04-11T08:26:38.046Z,0.40
2023-04-11T08:29:40.839Z,0.30
2023-04-11T08:32:45.160Z,1.07
2023-04-11T08:35:48.226Z,0.97
2023-04-11T08:38:51.049Z,1.27
2023-04-11T08:41:53.840Z,2.10
2023-04-11T08:44:58.069Z,1.10
2023-04-11T08:48:02.395Z,0.70
2023-04-11T08:51:05.572Z,0.93
2023-04-11T08:54:09.758Z,0.37
2023-04-11T08:57:21.885Z,1.13
2023-04-11T09:00:25.525Z,0.57
2023-04-11T09:03:31.584Z,0.30
2023-04-11T09:06:35.028Z,0.60
2023-04-11T09:09:39.243Z,0.27
2023-04-11T09:12:42.020Z,0.93
2023-04-11T09:15:45.215Z,1.73
2023-04-11T09:18:49.487Z,0.33
2023-04-11T09:21:53.497Z,0.60
2023-04-11T09:25:03.467Z,1.40
2023-04-11T09:28:11.131Z,0.80
2023-04-11T09:31:14.125Z,1.80
2023-04-11T09:34:25.937Z,1.10
2023-04-11T09:37:28.775Z,1.30
2023-04-11T09:40:42.292Z,0.40
2023-04-11T09:43:50.699Z,0.90
2023-04-11T09:47:00.603Z,1.00
2023-04-11T09:50:05.053Z,0.90
2023-04-11T09:53:09.985Z,2.17
2023-04-11T09:56:13.203Z,1.60
2023-04-11T09:59:16.400Z,1.83
2023-04-11T10:02:19.272Z,0.40
2023-04-11T10:05:27.870Z,3.67
2023-04-11T10:08:33.849Z,1.33
2023-04-11T10:11:36.982Z,5.27
2023-04-11T10:14:43.451Z,3.00
2023-04-11T10:18:10.878Z,2.47
2023-04-11T10:21:42.749Z,0.93
2023-04-11T10:25:17.655Z,2.80
2023-04-11T10:28:34.448Z,2.43
2023-04-11T10:32:02.227Z,2.33
2023-04-11T10:35:24.727Z,1.73
2023-04-11T10:38:48.266Z,9.17
2023-04-11T10:41:51.225Z,0.50
2023-04-11T10:45:15.421Z,3.33
2023-04-11T10:48:18.218Z,2.07
2023-04-11T10:51:25.015Z,2.37
2023-04-11T10:54:29.507Z,3.13
2023-04-11T10:58:05.619Z,5.87
2023-04-11T11:01:26.519Z,2.37
2023-04-11T11:04:36.616Z,2.57
2023-04-11T11:07:40.887Z,3.80
2023-04-11T11:10:47.187Z,2.13
2023-04-11T11:13:52.299Z,2.90
2023-04-11T11:16:55.238Z,2.43
2023-04-11T11:19:58.064Z,4.10
2023-04-11T11:23:05.405Z,4.17
2023-04-11T11:26:09.573Z,5.53
2023-04-11T11:29:12.455Z,3.97
2023-04-11T11:32:22.783Z,3.47
2023-04-11T11:35:26.165Z,1.73
2023-04-11T11:38:30.504Z,2.73
2023-04-11T11:41:35.955Z,3.03
2023-04-11T11:44:39.184Z,3.00
2023-04-11T11:47:42.935Z,2.40
2023-04-11T11:50:46.022Z,4.03
2023-04-11T11:54:03.595Z,2.83
2023-04-11T11:57:07.760Z,2.73
2023-04-11T12:00:11.885Z,5.03
2023-04-11T12:03:18.395Z,5.43
2023-04-11T12:06:21.819Z,3.53
2023-04-11T12:09:31.616Z,1.53
2023-04-11T12:12:37.729Z,5.50
2023-04-11T12:15:41.724Z,1.53
2023-04-11T12:18:45.456Z,2.73
2023-04-11T12:21:48.401Z,1.93
2023-04-11T12:24:53.081Z,5.17
2023-04-11T12:27:57.654Z,1.23
2023-04-11T12:31:00.483Z,1.60
2023-04-11T12:34:03.805Z,2.20
2023-04-11T12:37:06.764Z,1.83
2023-04-11T12:40:11.576Z,2.17
2023-04-11T12:43:15.855Z,3.93
2023-04-11T12:46:19.323Z,5.73
2023-04-11T12:49:22.146Z,1.47
2023-04-11T12:52:25.384Z,1.83
2023-04-11T12:55:28.703Z,11.17
2023-04-11T12:58:33.034Z,2.17
2023-04-11T13:01:36.847Z,2.80
2023-04-11T13:04:39.830Z,1.10
2023-04-11T13:07:44.421Z,5.43
2023-04-11T13:10:47.348Z,1.70
2023-04-11T13:13:52.304Z,1.00
2023-04-11T13:16:55.526Z,2.73
2023-04-11T13:19:58.320Z,2.40
2023-04-11T13:23:01.107Z,2.13
2023-04-11T13:26:04.148Z,1.47
2023-04-11T13:29:08.339Z,1.43
2023-04-11T13:32:11.155Z,1.90
2023-04-11T13:35:13.921Z,1.10
2023-04-11T13:38:16.709Z,1.97
2023-04-11T13:41:19.588Z,1.47
2023-04-11T13:44:23.939Z,0.67
2023-04-11T13:47:26.786Z,3.33
2023-04-11T13:50:29.596Z,1.90
2023-04-11T13:53:32.361Z,0.77
2023-04-11T13:56:36.411Z,3.93
2023-04-11T13:59:40.600Z,1.17
2023-04-11T14:02:44.501Z,1.50
2023-04-11T14:05:47.505Z,4.03
2023-04-11T14:08:51.061Z,3.30
2023-04-11T14:11:53.925Z,1.57
2023-04-11T14:14:58.059Z,2.13
2023-04-11T14:18:01.235Z,0.73
2023-04-11T14:21:05.723Z,2.00
2023-04-11T14:24:09.110Z,1.20
2023-04-11T14:27:11.928Z,1.67
2023-04-11T14:30:16.291Z,0.80
2023-04-11T14:33:19.824Z,0.63
2023-04-11T14:36:22.663Z,0.80
2023-04-11T14:39:25.618Z,2.63
2023-04-11T14:42:28.701Z,3.93
2023-04-11T14:45:33.032Z,0.80
2023-04-11T14:48:35.896Z,1.90
2023-04-11T14:51:38.811Z,1.47
2023-04-11T14:54:41.618Z,1.17
2023-04-11T14:57:46.942Z,0.60
2023-04-11T15:00:51.478Z,0.77
2023-04-11T15:03:54.643Z,1.13
2023-04-11T15:06:59.174Z,2.13
2023-04-11T15:10:02.175Z,1.03
2023-04-11T15:13:04.992Z,0.97
2023-04-11T15:16:09.750Z,2.67
2023-04-11T15:19:12.630Z,1.17
2023-04-11T15:22:15.406Z,2.57
2023-04-11T15:25:18.215Z,2.53
2023-04-11T15:28:21.267Z,4.33
2023-04-11T15:31:27.484Z,0.67
2023-04-11T15:34:30.367Z,1.10
2023-04-11T15:37:33.381Z,2.93
2023-04-11T15:40:36.275Z,3.07
2023-04-11T15:43:39.127Z,1.13
2023-04-11T15:46:43.924Z,1.77
2023-04-11T15:49:47.382Z,1.93
2023-04-11T15:52:50.265Z,2.37
2023-04-11T15:55:53.056Z,1.73
2023-04-11T15:58:55.914Z,1.53
2023-04-11T16:02:00.371Z,0.73
2023-04-11T16:05:03.907Z,1.17
2023-04-11T16:08:07.342Z,2.47
2023-04-11T16:11:10.137Z,0.97
2023-04-11T16:14:13.211Z,1.27
2023-04-11T16:17:18.976Z,1.10
2023-04-11T16:20:22.030Z,1.00
2023-04-11T16:23:24.863Z,1.50
2023-04-11T16:26:27.993Z,1.27
2023-04-11T16:29:30.830Z,0.80
2023-04-11T16:32:35.024Z,3.40
2023-04-11T16:35:37.914Z,1.60
2023-04-11T16:38:40.742Z,1.20
2023-04-11T16:41:44.100Z,1.93
2023-04-11T16:44:46.926Z,1.73
2023-04-11T16:47:51.120Z,1.57
2023-04-11T16:50:53.936Z,1.20
2023-04-11T16:53:57.420Z,1.57
2023-04-11T16:57:01.482Z,0.90
2023-04-11T17:00:16.485Z,1.47
2023-04-11T17:03:21.808Z,3.23
2023-04-11T17:06:24.859Z,4.07
2023-04-11T17:09:27.702Z,1.80
2023-04-11T17:12:31.537Z,5.07
2023-04-11T17:15:35.745Z,2.37
2023-04-11T17:18:40.717Z,1.63
2023-04-11T17:21:43.719Z,1.40
2023-04-11T17:24:46.860Z,1.37
2023-04-11T17:27:49.723Z,2.40
2023-04-11T17:30:53.317Z,1.77
2023-04-11T17:33:57.795Z,2.93
2023-04-11T17:37:00.919Z,2.60
2023-04-11T17:40:11.571Z,1.37
2023-04-11T17:43:14.388Z,2.00
2023-04-11T17:46:17.412Z,1.87
2023-04-11T17:49:21.647Z,2.00
2023-04-11T17:52:24.525Z,1.20
2023-04-11T17:55:27.386Z,2.40
2023-04-11T17:58:30.447Z,2.60
2023-04-11T18:01:33.353Z,1.97
2023-04-11T18:04:37.609Z,1.97
2023-04-11T18:07:41.946Z,2.73
2023-04-11T18:10:44.818Z,4.90
2023-04-11T18:13:50.060Z,2.87
2023-04-11T18:16:53.213Z,1.30
2023-04-11T18:19:57.970Z,1.73
2023-04-11T18:23:01.683Z,2.63
2023-04-11T18:26:04.522Z,3.57
2023-04-11T18:29:07.449Z,1.53
2023-04-11T18:32:10.255Z,5.00
2023-04-11T18:35:15.043Z,1.10
2023-04-11T18:38:17.971Z,2.43
2023-04-11T18:41:21.099Z,1.77
2023-04-11T18:44:24.213Z,1.60
2023-04-11T18:47:27.170Z,2.63
2023-04-11T18:50:31.446Z,1.30
2023-04-11T18:53:36.436Z,2.10
2023-04-11T18:56:40.568Z,2.67
2023-04-11T18:59:44.559Z,3.23
2023-04-11T19:02:50.616Z,1.43
2023-04-11T19:05:55.507Z,2.03
2023-04-11T19:08:58.346Z,1.63
2023-04-11T19:12:01.278Z,1.17
2023-04-11T19:15:04.968Z,1.00
2023-04-11T19:18:10.013Z,1.93
2023-04-11T19:21:14.182Z,2.30
2023-04-11T19:24:17.118Z,2.13
2023-04-11T19:27:21.500Z,1.73
2023-04-11T19:30:24.453Z,7.83
2023-04-11T19:33:27.279Z,7.27
2023-04-11T19:36:31.561Z,5.37
2023-04-11T19:39:38.047Z,2.87
2023-04-11T19:42:41.528Z,2.03
2023-04-11T19:45:44.872Z,3.10
2023-04-11T19:48:47.972Z,2.70
2023-04-11T19:51:52.456Z,1.60
2023-04-11T19:54:55.533Z,2.33
2023-04-11T19:57:58.400Z,2.63
2023-04-11T20:01:01.213Z,2.87
2023-04-11T20:04:04.819Z,2.70
2023-04-11T20:07:09.161Z,2.80
2023-04-11T20:10:12.940Z,3.33
2023-04-11T20:13:16.567Z,1.87
2023-04-11T20:16:22.036Z,2.47
2023-04-11T20:19:27.576Z,8.23
2023-04-11T20:22:31.725Z,2.30
2023-04-11T20:25:35.486Z,3.03
2023-04-11T20:28:39.439Z,2.20
2023-04-11T20:31:42.264Z,2.07
2023-04-11T20:34:45.256Z,4.17
2023-04-11T20:37:49.840Z,14.20
2023-04-11T20:40:52.699Z,30.07
2023-04-11T20:43:56.480Z,15.93
2023-04-11T20:46:59.473Z,19.73
2023-04-11T20:50:04.172Z,21.57
2023-04-11T20:53:08.570Z,17.60
2023-04-11T20:56:11.815Z,7.67
2023-04-11T20:59:14.621Z,3.83
2023-04-11T21:02:17.646Z,5.17
2023-04-11T21:05:22.029Z,5.30
2023-04-11T21:08:26.389Z,3.00
2023-04-11T21:11:29.204Z,2.30
2023-04-11T21:14:33.155Z,2.50
2023-04-11T21:17:39.283Z,2.90
2023-04-11T21:20:42.307Z,2.17
2023-04-11T21:23:46.462Z,3.20
2023-04-11T21:26:49.277Z,3.93
2023-04-11T21:29:52.088Z,2.73
2023-04-11T21:32:55.043Z,3.23
2023-04-11T21:35:57.963Z,7.13
2023-04-11T21:39:02.150Z,3.87
2023-04-11T21:42:05.171Z,2.77
2023-04-11T21:45:09.500Z,2.73
2023-04-11T21:48:12.434Z,2.53
2023-04-11T21:51:16.831Z,2.80
2023-04-11T21:54:21.177Z,3.00
2023-04-11T21:57:23.973Z,3.40
2023-04-11T22:00:27.164Z,6.50
2023-04-11T22:03:30.863Z,5.63
2023-04-11T22:06:33.978Z,3.40
2023-04-11T22:09:38.159Z,4.13
2023-04-11T22:12:42.074Z,3.57
2023-04-11T22:15:45.470Z,3.30
2023-04-11T22:18:48.986Z,3.87
2023-04-11T22:21:55.460Z,4.40
2023-04-11T22:25:00.942Z,3.47
2023-04-11T22:28:04.100Z,7.30
2023-04-11T22:31:07.622Z,3.53
2023-04-11T22:34:10.445Z,4.37
2023-04-11T22:37:13.378Z,3.50
2023-04-11T22:40:22.134Z,3.67
2023-04-11T22:43:25.052Z,4.13
2023-04-11T22:46:28.375Z,3.73
2023-04-11T22:49:32.246Z,4.27
2023-04-11T22:52:35.464Z,3.67
2023-04-11T22:55:39.968Z,3.40
2023-04-11T22:58:42.984Z,3.60
2023-04-11T23:01:45.939Z,4.53
2023-04-11T23:04:48.798Z,3.13
2023-04-11T23:07:51.694Z,3.80
2023-04-11T23:10:55.841Z,3.83
2023-04-11T23:13:59.197Z,3.73
2023-04-11T23:17:02.443Z,3.03
2023-04-11T23:20:12.708Z,2.53
2023-04-11T23:23:15.719Z,2.37
2023-04-11T23:26:20.730Z,2.97
2023-04-11T23:29:23.566Z,4.80
2023-04-11T23:32:26.365Z,4.60
2023-04-11T23:35:31.476Z,2.40
2023-04-11T23:38:34.325Z,5.67
2023-04-11T23:41:38.469Z,2.47
2023-04-11T23:44:41.441Z,1.70
2023-04-11T23:47:44.742Z,5.00
2023-04-11T23:50:48.427Z,3.00
2023-04-11T23:53:51.297Z,3.67
2023-04-11T23:56:55.466Z,3.27
2023-04-11T23:59:58.284Z,2.37
